Time;durP1;ratioP1;P1;durP2;ratioP2;P2;SDS_P1;SDS_P2;PMS_P1;PMS_P2;Temp;Humidity;BMP_temperature;BMP_pressure;BME280_temperature;BME280_humidity;BME280_pressure;Samples;Min_cycle;Max_cycle;Signal;HPM_P1;HPM_P2
2021/10/20 00:02:09;;;;;;;0.30;0.30;;;;;;;12.85;100.00;98758.53;5104029;28;20075;-74
2021/10/20 00:04:34;;;;;;;0.20;0.20;;;;;;;12.91;100.00;98769.59;5103777;28;20039;-75
2021/10/20 00:07:00;;;;;;;0.20;0.20;;;;;;;12.94;100.00;98767.69;5103996;28;20031;-77
2021/10/20 00:09:25;;;;;;;0.20;0.20;;;;;;;12.96;100.00;98765.00;5103760;28;20035;-75
2021/10/20 00:11:51;;;;;;;0.20;0.20;;;;;;;13.00;100.00;98758.78;5103719;28;20020;-75
2021/10/20 00:14:16;;;;;;;0.20;0.20;;;;;;;12.97;100.00;98757.13;5103588;28;20020;-75
2021/10/20 00:16:42;;;;;;;0.20;0.20;;;;;;;13.02;100.00;98756.91;5103978;28;20016;-76
2021/10/20 00:19:08;;;;;;;0.20;0.20;;;;;;;13.04;100.00;98762.06;5103696;28;20020;-76
2021/10/20 00:21:34;;;;;;;0.20;0.20;;;;;;;13.06;100.00;98750.69;5103912;28;20016;-74
2021/10/20 00:23:59;;;;;;;0.20;0.20;;;;;;;13.03;100.00;98748.22;5103511;28;20471;-74
2021/10/20 00:26:25;;;;;;;0.20;0.20;;;;;;;13.02;100.00;98749.09;5085647;28;20036;-74
2021/10/20 00:28:51;;;;;;;0.20;0.20;;;;;;;13.02;100.00;98746.50;5103731;28;20443;-74
2021/10/20 00:31:16;;;;;;;0.20;0.20;;;;;;;13.03;100.00;98753.41;5103758;28;20067;-75
2021/10/20 00:33:42;;;;;;;0.20;0.20;;;;;;;13.06;100.00;98732.44;5119341;28;20026;-76
2021/10/20 00:36:07;;;;;;;0.40;0.40;;;;;;;13.10;100.00;98733.16;5085531;28;20364;-76
2021/10/20 00:38:32;;;;;;;1.38;1.27;;;;;;;13.06;100.00;98731.59;5103795;28;20084;-76
2021/10/20 00:40:58;;;;;;;0.20;0.20;;;;;;;13.08;100.00;98727.97;5105016;28;20031;-75
2021/10/20 00:43:24;;;;;;;0.20;0.20;;;;;;;13.13;100.00;98738.22;5107604;28;20077;-76
2021/10/20 00:45:50;;;;;;;0.20;0.20;;;;;;;13.17;100.00;98718.91;5107294;28;20479;-76
2021/10/20 00:48:16;;;;;;;0.20;0.20;;;;;;;13.17;100.00;98734.53;5107493;28;20039;-75
2021/10/20 00:50:42;;;;;;;0.20;0.20;;;;;;;13.20;100.00;98717.91;5107582;28;20020;-75
2021/10/20 00:53:08;;;;;;;0.30;0.30;;;;;;;13.20;100.00;98717.91;5107560;28;20472;-75
2021/10/20 00:55:35;;;;;;;0.30;0.30;;;;;;;13.21;100.00;98719.63;5107607;28;20254;-75
2021/10/20 00:58:00;;;;;;;0.38;0.38;;;;;;;13.20;100.00;98717.91;5107602;28;20046;-75
2021/10/20 01:00:25;;;;;;;0.43;0.43;;;;;;;13.23;100.00;98702.13;5107345;28;20027;-76
2021/10/20 01:02:51;;;;;;;0.20;0.20;;;;;;;13.23;100.00;98697.78;5107352;28;20504;-76
2021/10/20 01:05:16;;;;;;;0.20;0.20;;;;;;;13.24;100.00;98706.44;5107444;28;20430;-76
2021/10/20 01:07:42;;;;;;;0.20;0.20;;;;;;;13.23;100.00;98696.91;5107103;28;20055;-75
2021/10/20 01:10:10;;;;;;;0.20;0.20;;;;;;;13.24;100.00;98709.88;5089044;28;20552;-77
2021/10/20 01:12:36;;;;;;;0.55;0.55;;;;;;;13.24;100.00;98694.25;5106963;28;20039;-76
2021/10/20 01:15:13;;;;;;;0.20;0.20;;;;;;;13.23;100.00;98678.69;5107005;28;20020;-76
2021/10/20 01:17:40;;;;;;;0.50;0.50;;;;;;;13.25;100.00;98688.13;5107267;28;20103;-76
2021/10/20 01:20:06;;;;;;;0.20;0.20;;;;;;;13.25;100.00;98664.69;5107099;28;20031;-76
2021/10/20 01:22:32;;;;;;;0.20;0.20;;;;;;;13.28;100.00;98676.72;5106702;28;20020;-76
2021/10/20 01:25:00;;;;;;;0.20;0.20;;;;;;;13.24;100.00;98677.78;5106770;28;20065;-75
2021/10/20 01:27:25;;;;;;;0.20;0.20;;;;;;;13.25;100.00;98669.03;5122594;28;20045;-76
2021/10/20 01:29:51;;;;;;;0.20;0.20;;;;;;;13.21;100.00;98667.50;5088331;28;20091;-75
2021/10/20 01:32:16;;;;;;;0.20;0.20;;;;;;;13.19;100.00;98662.38;5106852;28;20024;-76
2021/10/20 01:34:42;;;;;;;0.20;0.20;;;;;;;13.12;100.00;98645.31;5122757;28;20394;-76
2021/10/20 01:37:09;;;;;;;0.20;0.20;;;;;;;13.12;100.00;98648.78;5106832;28;20030;-76
2021/10/20 01:39:34;;;;;;;0.20;0.20;;;;;;;13.16;100.00;98646.03;5106596;28;20020;-75
2021/10/20 01:42:00;;;;;;;1.42;0.93;;;;;;;13.21;100.00;98651.88;5106673;28;20075;-75
2021/10/20 01:44:25;;;;;;;0.20;0.20;;;;;;;13.18;100.00;98652.03;5106637;28;20032;-74
2021/10/20 01:46:50;;;;;;;0.30;0.30;;;;;;;13.13;100.00;98629.63;5106807;28;20055;-76
2021/10/20 01:49:16;;;;;;;0.60;0.50;;;;;;;13.18;100.00;98644.22;5106643;28;20085;-75
2021/10/20 01:51:42;;;;;;;0.20;0.20;;;;;;;13.16;100.00;98644.28;5110449;28;20028;-76
2021/10/20 01:54:08;;;;;;;0.70;0.70;;;;;;;13.14;100.00;98638.28;5091240;28;20027;-76
2021/10/20 01:56:33;;;;;;;2.00;1.75;;;;;;;13.14;100.00;98641.75;5108758;28;20024;-75
2021/10/20 01:58:59;;;;;;;0.20;0.20;;;;;;;13.14;100.00;98627.88;5106458;28;20032;-75
2021/10/20 02:01:25;;;;;;;0.20;0.20;;;;;;;13.19;100.00;98630.25;5122115;28;20020;-77
2021/10/20 02:03:50;;;;;;;0.20;0.20;;;;;;;13.16;100.00;98613.00;5106112;28;20020;-76
2021/10/20 02:06:19;;;;;;;0.20;0.20;;;;;;;13.15;100.00;98611.31;5106337;28;20024;-77
2021/10/20 02:08:45;;;;;;;0.35;0.35;;;;;;;13.19;100.00;98620.69;5106146;28;20024;-75
2021/10/20 02:11:12;;;;;;;0.40;0.40;;;;;;;13.20;100.00;98617.16;5105877;28;20027;-75
2021/10/20 02:13:38;;;;;;;0.60;0.60;;;;;;;13.21;100.00;98607.56;5105886;28;20031;-76
2021/10/20 02:16:04;;;;;;;0.50;0.50;;;;;;;13.18;100.00;98615.53;5105714;28;20511;-76
2021/10/20 02:18:29;;;;;;;0.63;0.63;;;;;;;13.14;100.00;98610.47;5087750;28;20039;-77
2021/10/20 02:20:55;;;;;;;0.20;0.20;;;;;;;13.11;100.00;98601.97;5106287;28;20020;-77
2021/10/20 02:23:20;;;;;;;0.20;0.20;;;;;;;13.09;100.00;98599.44;5105731;28;20409;-78
2021/10/20 02:25:49;;;;;;;0.95;0.95;;;;;;;13.08;100.00;98587.31;5105618;28;20020;-77
2021/10/20 02:28:14;;;;;;;0.20;0.20;;;;;;;13.07;100.00;98574.34;5105669;28;20088;-77
2021/10/20 02:30:41;;;;;;;0.20;0.20;;;;;;;13.09;100.00;98582.94;5121119;28;20016;-77
2021/10/20 02:33:07;;;;;;;0.20;0.20;;;;;;;13.07;100.00;98566.53;5105566;28;20020;-78
2021/10/20 02:35:32;;;;;;;0.20;0.20;;;;;;;13.08;100.00;98563.84;5105608;28;20034;-77
2021/10/20 02:37:59;;;;;;;0.20;0.20;;;;;;;13.05;100.00;98555.38;5105592;28;20036;-76
2021/10/20 02:40:25;;;;;;;0.20;0.20;;;;;;;13.12;100.00;98567.16;5105576;28;20095;-75
2021/10/20 02:42:50;;;;;;;0.20;0.20;;;;;;;13.12;100.00;98562.81;5105400;28;20028;-75
2021/10/20 02:45:16;;;;;;;0.20;0.20;;;;;;;13.12;100.00;98552.38;5104833;28;20024;-75
2021/10/20 02:47:42;;;;;;;0.20;0.20;;;;;;;13.19;100.00;98563.34;5105041;28;20384;-75
2021/10/20 02:50:08;;;;;;;0.20;0.20;;;;;;;13.23;100.00;98556.22;5105471;28;20095;-75
2021/10/20 02:52:34;;;;;;;0.52;0.52;;;;;;;13.22;100.00;98554.53;5105001;28;20028;-75
2021/10/20 02:55:00;;;;;;;2.08;1.15;;;;;;;13.23;100.00;98549.25;5104993;28;20032;-75
2021/10/20 02:57:25;;;;;;;0.20;0.20;;;;;;;13.23;100.00;98556.22;5105105;28;20045;-75
2021/10/20 02:59:52;;;;;;;0.20;0.20;;;;;;;13.19;100.00;98536.44;5104808;28;20110;-75
2021/10/20 03:02:18;;;;;;;0.20;0.20;;;;;;;13.21;100.00;98537.22;5104895;28;20034;-75
2021/10/20 03:04:43;;;;;;;0.20;0.20;;;;;;;13.26;100.00;98543.03;5119808;28;20454;-74
2021/10/20 03:07:09;;;;;;;0.20;0.20;;;;;;;13.29;100.00;98527.25;5104829;28;20032;-74
2021/10/20 03:09:34;;;;;;;0.20;0.20;;;;;;;13.29;100.00;98524.63;5104854;28;20050;-75
2021/10/20 03:11:59;;;;;;;0.80;0.80;;;;;;;13.33;100.00;98526.19;5104787;28;20035;-74
2021/10/20 03:14:25;;;;;;;0.20;0.20;;;;;;;13.32;100.00;98514.06;5086294;28;20134;-72
2021/10/20 03:16:50;;;;;;;4.15;0.95;;;;;;;13.34;100.00;98517.44;5120413;28;20069;-73
2021/10/20 03:19:15;;;;;;;0.20;0.20;;;;;;;13.26;100.00;98509.16;5104886;28;20051;-74
2021/10/20 03:21:41;;;;;;;0.20;0.20;;;;;;;13.17;100.00;98487.03;5104458;28;20464;-73
2021/10/20 03:24:07;;;;;;;0.20;0.20;;;;;;;13.33;100.00;98518.38;5119914;28;20044;-74
2021/10/20 03:26:33;;;;;;;1.23;1.20;;;;;;;13.32;100.00;98502.81;5085901;28;20122;-74
2021/10/20 03:28:58;;;;;;;0.20;0.20;;;;;;;13.19;100.00;98485.19;5103570;28;20039;-74
2021/10/20 03:31:24;;;;;;;0.20;0.20;;;;;;;13.35;100.00;98503.50;5103444;28;20055;-74
2021/10/20 03:33:49;;;;;;;0.20;0.20;;;;;;;13.32;100.00;98500.19;5103464;28;20455;-74
2021/10/20 03:36:14;;;;;;;0.50;0.50;;;;;;;13.24;100.00;98488.38;5104362;28;20035;-76
2021/10/20 03:38:40;;;;;;;0.20;0.20;;;;;;;13.35;100.00;98498.28;5119843;28;20091;-74
2021/10/20 03:41:05;;;;;;;0.20;0.20;;;;;;;13.25;100.00;98481.41;5104100;28;20111;-74
2021/10/20 03:43:30;;;;;;;0.55;0.55;;;;;;;13.39;100.00;98496.34;5104165;28;20083;-74
2021/10/20 03:45:56;;;;;;;0.20;0.20;;;;;;;13.37;100.00;98490.41;5104012;28;20023;-74
2021/10/20 03:48:22;;;;;;;0.20;0.20;;;;;;;13.39;100.00;98484.19;5104158;28;20028;-75
2021/10/20 03:50:47;;;;;;;0.20;0.20;;;;;;;13.25;100.00;98465.78;5119922;28;20559;-75
2021/10/20 03:53:13;;;;;;;0.30;0.30;;;;;;;13.23;100.00;98450.22;5119607;28;20045;-74
2021/10/20 03:55:38;;;;;;;2.38;1.10;;;;;;;13.38;100.00;98477.28;5103885;28;20069;-74
2021/10/20 03:58:04;;;;;;;0.20;0.20;;;;;;;13.30;100.00;98458.59;5104060;28;20024;-74
2021/10/20 04:00:30;;;;;;;1.27;1.00;;;;;;;13.37;100.00;98467.75;5103902;28;20034;-73
2021/10/20 04:02:55;;;;;;;0.30;0.30;;;;;;;13.39;100.00;98454.66;5103869;28;20088;-73
2021/10/20 04:05:21;;;;;;;0.95;0.95;;;;;;;13.36;100.00;98453.06;5103955;28;20088;-73
2021/10/20 04:07:50;;;;;;;0.30;0.30;;;;;;;13.37;100.00;98449.53;5103623;28;20051;-75
2021/10/20 04:10:24;;;;;;;0.20;0.20;;;;;;;13.39;100.00;98442.47;5103391;28;20039;-75
2021/10/20 04:12:50;;;;;;;0.70;0.70;;;;;;;13.21;100.00;98405.16;5103708;28;20031;-74
2021/10/20 04:15:18;;;;;;;0.20;0.20;;;;;;;13.29;100.00;98412.59;5103369;28;20422;-74
2021/10/20 04:17:44;;;;;;;0.40;0.40;;;;;;;13.37;100.00;98428.66;5104190;28;20020;-75
2021/10/20 04:20:12;;;;;;;0.20;0.20;;;;;;;13.41;100.00;98421.53;5119388;28;20122;-75
2021/10/20 04:22:38;;;;;;;1.23;1.20;;;;;;;13.41;100.00;98424.16;5103587;28;20047;-74
2021/10/20 04:25:05;;;;;;;0.20;0.20;;;;;;;13.42;100.00;98425.00;5103580;28;20031;-74
2021/10/20 04:27:30;;;;;;;0.32;0.32;;;;;;;13.39;100.00;98415.56;5085594;28;20024;-74
2021/10/20 04:29:57;;;;;;;0.35;0.35;;;;;;;13.45;100.00;98411.81;5103723;28;20039;-75
2021/10/20 04:32:23;;;;;;;0.30;0.30;;;;;;;13.35;100.00;98394.03;5103314;28;20016;-75
2021/10/20 04:34:49;;;;;;;0.20;0.20;;;;;;;13.43;100.00;98418.84;5103501;28;20059;-74
2021/10/20 04:37:14;;;;;;;0.30;0.30;;;;;;;13.42;100.00;98425.81;5103519;28;20024;-73
2021/10/20 04:39:39;;;;;;;3.47;3.20;;;;;;;13.38;100.00;98406.06;5103628;28;20032;-73
2021/10/20 04:42:05;;;;;;;0.20;0.20;;;;;;;13.45;100.00;98399.59;5103530;28;20102;-73
2021/10/20 04:44:30;;;;;;;0.20;0.20;;;;;;;13.38;100.00;98393.88;5103283;28;20021;-72
2021/10/20 04:46:55;;;;;;;0.20;0.20;;;;;;;13.43;100.00;98395.41;5103566;28;20103;-73
2021/10/20 04:49:21;;;;;;;0.20;0.20;;;;;;;13.28;100.00;98377.03;5103611;28;20078;-73
2021/10/20 04:51:46;;;;;;;0.20;0.20;;;;;;;13.32;100.00;98385.53;5085296;28;20175;-75
2021/10/20 04:54:12;;;;;;;0.63;0.63;;;;;;;13.35;100.00;98378.41;5103661;28;20080;-76
2021/10/20 04:56:37;;;;;;;0.20;0.20;;;;;;;13.46;100.00;98400.44;5119297;28;20034;-75
2021/10/20 04:59:02;;;;;;;0.20;0.20;;;;;;;13.47;100.00;98389.94;5103545;28;20383;-75
2021/10/20 05:01:28;;;;;;;0.20;0.20;;;;;;;13.48;100.00;98378.56;5103232;28;20027;-75
2021/10/20 05:03:53;;;;;;;0.47;0.47;;;;;;;13.53;100.00;98372.31;5103094;28;20032;-75
2021/10/20 05:06:18;;;;;;;4.97;1.00;;;;;;;13.48;100.00;98381.19;5103351;28;20072;-75
2021/10/20 05:08:43;;;;;;;1.40;1.30;;;;;;;13.48;100.00;98375.97;5103707;28;20043;-76
2021/10/20 05:11:09;;;;;;;0.20;0.20;;;;;;;13.48;100.00;98362.13;5103229;28;20024;-74
2021/10/20 05:13:35;;;;;;;0.30;0.30;;;;;;;13.46;100.00;98354.38;5103557;28;20027;-76
2021/10/20 05:16:00;;;;;;;0.20;0.20;;;;;;;13.51;100.00;98364.59;5103048;28;20024;-77
2021/10/20 05:18:26;;;;;;;0.30;0.30;;;;;;;13.46;100.00;98348.31;5103262;28;20087;-75
2021/10/20 05:20:51;;;;;;;0.20;0.20;;;;;;;13.41;100.00;98345.97;5103091;28;20016;-76
2021/10/20 05:23:16;;;;;;;0.45;0.45;;;;;;;13.38;100.00;98338.31;5077812;28;20056;-75
2021/10/20 05:25:42;;;;;;;0.20;0.20;;;;;;;13.47;100.00;98340.41;5063459;28;20523;-75
2021/10/20 05:28:07;;;;;;;0.82;0.82;;;;;;;13.49;100.00;98341.19;5066639;28;20048;-75
2021/10/20 05:30:33;;;;;;;0.52;0.52;;;;;;;13.49;100.00;98325.53;5066019;28;20017;-75
2021/10/20 05:32:59;;;;;;;0.20;0.20;;;;;;;13.53;100.00;98331.44;5066479;28;20021;-74
2021/10/20 05:35:25;;;;;;;0.20;0.20;;;;;;;13.34;100.00;98298.53;5064777;28;20096;-76
2021/10/20 05:37:52;;;;;;;0.20;0.20;;;;;;;13.45;100.00;98313.56;5066436;28;20092;-76
2021/10/20 05:40:19;;;;;;;0.25;0.25;;;;;;;13.50;100.00;98313.31;5066209;28;20100;-76
2021/10/20 05:42:44;;;;;;;0.20;0.20;;;;;;;13.47;100.00;98308.28;5065889;28;20499;-76
2021/10/20 05:45:10;;;;;;;1.55;1.40;;;;;;;13.49;100.00;98312.50;5065943;28;20056;-76
2021/10/20 05:47:36;;;;;;;0.20;0.20;;;;;;;13.51;100.00;98302.84;5066029;28;20029;-75
2021/10/20 05:50:01;;;;;;;0.88;0.82;;;;;;;13.48;100.00;98299.56;5065905;28;20036;-75
2021/10/20 05:52:27;;;;;;;0.25;0.25;;;;;;;13.48;100.00;98291.75;5066025;28;20021;-75
2021/10/20 05:54:55;;;;;;;0.63;0.63;;;;;;;13.46;100.00;98294.44;5066135;28;20028;-76
2021/10/20 05:57:22;;;;;;;0.20;0.20;;;;;;;13.44;100.00;98288.44;5066196;28;20021;-76
2021/10/20 05:59:47;;;;;;;0.40;0.40;;;;;;;13.42;100.00;98292.91;5065640;28;20048;-75
2021/10/20 06:02:16;;;;;;;0.20;0.20;;;;;;;13.39;100.00;98286.09;5064601;28;20013;-77
2021/10/20 06:04:44;;;;;;;0.55;0.55;;;;;;;13.36;100.00;98286.25;5065738;28;20051;-75
2021/10/20 06:07:10;;;;;;;0.20;0.20;;;;;;;13.35;100.00;98263.75;5065861;28;20024;-75
2021/10/20 06:09:36;;;;;;;0.20;0.20;;;;;;;13.32;100.00;98265.66;5065707;28;20020;-75
2021/10/20 06:12:05;;;;;;;0.20;0.20;;;;;;;13.37;100.00;98274.09;5064319;28;20021;-75
2021/10/20 06:14:31;;;;;;;0.77;0.75;;;;;;;13.44;100.00;98277.16;5065679;28;20021;-74
2021/10/20 06:16:57;;;;;;;0.20;0.20;;;;;;;13.40;100.00;98273.91;5065427;28;20074;-76
2021/10/20 06:19:23;;;;;;;0.20;0.20;;;;;;;13.42;100.00;98277.25;5065601;28;20058;-75
2021/10/20 06:21:48;;;;;;;0.20;0.20;;;;;;;13.38;100.00;98265.34;5064267;28;20025;-75
2021/10/20 06:24:14;;;;;;;0.20;0.20;;;;;;;13.34;100.00;98256.81;5092436;28;20051;-75
2021/10/20 06:26:40;;;;;;;0.20;0.20;;;;;;;13.38;100.00;98270.53;5105788;28;20055;-76
2021/10/20 06:29:05;;;;;;;0.20;0.20;;;;;;;13.35;100.00;98268.09;5105904;28;20020;-75
2021/10/20 06:31:31;;;;;;;0.20;0.20;;;;;;;13.37;100.00;98272.28;5105637;28;20087;-75
2021/10/20 06:33:56;;;;;;;0.20;0.20;;;;;;;13.37;100.00;98255.84;5105762;28;20103;-76
2021/10/20 06:36:23;;;;;;;0.22;0.22;;;;;;;13.41;100.00;98261.69;5105655;28;20024;-75
2021/10/20 06:38:48;;;;;;;0.20;0.20;;;;;;;13.33;100.00;98251.69;5086190;28;20027;-75
2021/10/20 06:41:14;;;;;;;0.20;0.20;;;;;;;13.39;100.00;98256.56;5105724;28;20024;-76
2021/10/20 06:43:39;;;;;;;0.20;0.20;;;;;;;13.36;100.00;98246.31;5105509;28;20028;-76
2021/10/20 06:46:04;;;;;;;0.40;0.40;;;;;;;13.42;100.00;98255.59;5086843;28;20023;-75
2021/10/20 06:48:30;;;;;;;0.20;0.20;;;;;;;13.39;100.00;98246.16;5105538;28;20027;-74
2021/10/20 06:50:55;;;;;;;0.20;0.20;;;;;;;13.43;100.00;98244.22;5105516;28;20020;-74
2021/10/20 06:53:20;;;;;;;0.20;0.20;;;;;;;13.43;100.00;98239.00;5105240;28;20019;-74
2021/10/20 06:55:46;;;;;;;0.20;0.20;;;;;;;13.41;100.00;98236.50;5105238;28;20456;-75
2021/10/20 06:58:11;;;;;;;0.20;0.20;;;;;;;13.37;100.00;98235.00;5105613;28;20031;-75
2021/10/20 07:00:37;;;;;;;2.22;1.58;;;;;;;13.38;100.00;98232.31;5086678;28;20118;-75
2021/10/20 07:03:02;;;;;;;0.20;0.20;;;;;;;13.45;100.00;98221.53;5105197;28;20055;-74
2021/10/20 07:05:28;;;;;;;0.20;0.20;;;;;;;13.49;100.00;98238.66;5120652;28;20027;-75
2021/10/20 07:07:53;;;;;;;0.20;0.20;;;;;;;13.48;100.00;98232.59;5086767;28;20086;-76
2021/10/20 07:10:18;;;;;;;0.20;0.20;;;;;;;13.43;100.00;98229.44;5105081;28;20027;-75
2021/10/20 07:12:44;;;;;;;0.30;0.30;;;;;;;13.46;100.00;98231.03;5104980;28;20020;-76
2021/10/20 07:15:09;;;;;;;0.20;0.20;;;;;;;13.45;100.00;98226.75;5104760;28;20069;-75
2021/10/20 07:17:36;;;;;;;0.20;0.20;;;;;;;13.34;100.00;98220.34;5104862;28;20145;-75
2021/10/20 07:20:01;;;;;;;0.35;0.35;;;;;;;13.47;100.00;98235.31;5104606;28;20027;-75
2021/10/20 07:22:27;;;;;;;0.30;0.30;;;;;;;13.49;100.00;98236.06;5104681;28;20024;-75
2021/10/20 07:24:53;;;;;;;0.70;0.70;;;;;;;13.48;100.00;98237.00;5104384;28;20044;-75
2021/10/20 07:27:18;;;;;;;1.15;1.15;;;;;;;13.48;100.00;98247.44;5103732;28;20436;-74
2021/10/20 07:29:46;;;;;;;0.38;0.38;;;;;;;13.45;100.00;98238.00;5103780;28;20110;-74
2021/10/20 07:32:12;;;;;;;0.30;0.30;;;;;;;13.46;100.00;98233.63;5104539;28;20061;-75
2021/10/20 07:34:38;;;;;;;0.40;0.40;;;;;;;13.49;100.00;98230.84;5086182;28;20084;-75
2021/10/20 07:37:04;;;;;;;0.20;0.20;;;;;;;13.41;100.00;98231.28;5104403;28;20024;-75
2021/10/20 07:39:30;;;;;;;0.38;0.38;;;;;;;13.45;100.00;98227.56;5104290;28;20016;-75
2021/10/20 07:41:55;;;;;;;0.52;0.52;;;;;;;13.41;100.00;98220.00;5086051;28;20097;-75
2021/10/20 07:44:20;;;;;;;0.20;0.20;;;;;;;13.45;100.00;98224.13;5104391;28;20028;-75
2021/10/20 07:46:46;;;;;;;0.20;0.20;;;;;;;13.39;100.00;98213.13;5104148;28;20430;-75
2021/10/20 07:49:12;;;;;;;0.20;0.20;;;;;;;13.47;100.00;98230.09;5104068;28;20024;-75
2021/10/20 07:51:38;;;;;;;0.20;0.20;;;;;;;13.46;100.00;98226.66;5104002;28;20031;-76
2021/10/20 07:54:03;;;;;;;0.20;0.20;;;;;;;13.48;100.00;98229.19;5104047;28;20023;-76
2021/10/20 07:56:33;;;;;;;0.20;0.20;;;;;;;13.48;100.00;98229.19;5104044;28;20067;-75
2021/10/20 07:59:03;;;;;;;0.20;0.20;;;;;;;13.43;100.00;98208.59;5104181;28;20024;-75
2021/10/20 08:01:29;;;;;;;0.20;0.20;;;;;;;13.45;100.00;98221.53;5103596;28;20028;-76
2021/10/20 08:03:54;;;;;;;0.20;0.20;;;;;;;13.42;100.00;98217.31;5103934;28;20027;-75
2021/10/20 08:06:20;;;;;;;0.20;0.20;;;;;;;13.45;100.00;98213.72;5103710;28;20024;-74
2021/10/20 08:08:45;;;;;;;0.47;0.47;;;;;;;13.49;100.00;98215.22;5103779;28;20087;-75
2021/10/20 08:11:11;;;;;;;0.75;0.75;;;;;;;13.44;100.00;98212.00;5104145;28;20026;-75
2021/10/20 08:13:36;;;;;;;0.20;0.20;;;;;;;13.39;100.00;98192.28;5103847;28;20024;-76
2021/10/20 08:16:01;;;;;;;0.63;0.63;;;;;;;13.43;100.00;98197.31;5103805;28;20016;-75
2021/10/20 08:18:26;;;;;;;0.30;0.30;;;;;;;13.45;100.00;98190.25;5103941;28;20024;-75
2021/10/20 08:20:52;;;;;;;4.10;3.63;;;;;;;13.46;100.00;98184.09;5103775;28;20020;-76
2021/10/20 08:23:21;;;;;;;0.20;0.20;;;;;;;13.41;100.00;98178.31;5103504;28;20137;-76
2021/10/20 08:25:46;;;;;;;0.20;0.20;;;;;;;13.40;100.00;98172.28;5103709;28;20028;-77
2021/10/20 08:28:15;;;;;;;0.20;0.20;;;;;;;13.42;100.00;98180.00;5103695;28;20023;-76
2021/10/20 08:30:40;;;;;;;0.20;0.20;;;;;;;13.37;100.00;98173.25;5085253;28;20027;-75
2021/10/20 08:33:06;;;;;;;0.57;0.57;;;;;;;13.42;100.00;98170.41;5103757;28;20022;-75
2021/10/20 08:35:31;;;;;;;0.20;0.20;;;;;;;13.41;100.00;98160.06;5103753;28;20036;-76
2021/10/20 08:38:01;;;;;;;0.38;0.38;;;;;;;13.38;100.00;98163.69;5103722;28;20408;-77
2021/10/20 08:40:30;;;;;;;0.20;0.20;;;;;;;13.32;100.00;98144.00;5103761;28;20028;-76
2021/10/20 08:42:57;;;;;;;0.20;0.20;;;;;;;13.35;100.00;98141.25;5103506;28;20080;-76
2021/10/20 08:45:23;;;;;;;0.25;0.25;;;;;;;13.34;100.00;98133.53;5103859;28;20019;-76
2021/10/20 08:47:49;;;;;;;0.20;0.20;;;;;;;13.30;100.00;98119.81;5085300;28;20419;-75
2021/10/20 08:50:21;;;;;;;0.20;0.20;;;;;;;13.28;100.00;98116.47;5103906;28;20024;-75
2021/10/20 08:52:47;;;;;;;0.30;0.30;;;;;;;13.26;100.00;98116.53;5118593;28;20039;-75
2021/10/20 08:55:14;;;;;;;0.20;0.20;;;;;;;13.24;100.00;98105.34;5119103;28;20029;-76
2021/10/20 08:57:39;;;;;;;0.20;0.20;;;;;;;13.26;100.00;98105.28;5103455;28;20020;-76
2021/10/20 09:00:06;;;;;;;0.20;0.20;;;;;;;13.24;100.00;98112.34;5103193;28;20031;-76
2021/10/20 09:02:36;;;;;;;0.32;0.32;;;;;;;13.24;100.00;98109.75;5105776;28;20024;-75
2021/10/20 09:05:02;;;;;;;0.20;0.20;;;;;;;13.21;100.00;98112.53;5088970;28;20031;-76
2021/10/20 09:07:27;;;;;;;0.20;0.20;;;;;;;13.20;100.00;98110.84;5107303;28;20584;-76
2021/10/20 09:09:53;;;;;;;0.20;0.20;;;;;;;13.13;100.00;98118.19;5107255;28;20061;-76
2021/10/20 09:12:30;;;;;;;0.20;0.20;;;;;;;13.13;100.00;98118.19;5107061;28;20024;-76
2021/10/20 09:14:59;;;;;;;0.20;0.20;;;;;;;13.13;100.00;98118.19;5106886;28;20016;-76
2021/10/20 09:17:24;;;;;;;0.20;0.20;;;;;;;13.14;100.00;98130.28;5087947;28;20024;-75
2021/10/20 09:19:51;;;;;;;0.30;0.30;;;;;;;13.11;100.00;98120.03;5105953;28;20020;-75
2021/10/20 09:22:16;;;;;;;0.32;0.32;;;;;;;13.12;100.00;98113.88;5105845;28;20016;-76
2021/10/20 09:24:43;;;;;;;0.20;0.20;;;;;;;13.14;100.00;98112.88;5087556;28;20120;-76
2021/10/20 09:27:26;;;;;;;0.35;0.35;;;;;;;13.14;100.00;98115.50;5106062;28;20024;-76
2021/10/20 09:30:13;;;;;;;2.38;1.75;;;;;;;13.18;100.00;98110.09;5087751;28;20050;-76
2021/10/20 09:32:39;;;;;;;5.47;1.00;;;;;;;13.12;100.00;98106.91;5105825;28;20035;-74
2021/10/20 09:35:08;;;;;;;0.40;0.40;;;;;;;13.16;100.00;98118.00;5087919;28;20045;-76
2021/10/20 09:37:33;;;;;;;0.20;0.20;;;;;;;13.16;100.00;98114.56;5106792;28;20098;-76
2021/10/20 09:40:04;;;;;;;7.88;1.65;;;;;;;13.15;100.00;98111.09;5088143;28;20043;-76
2021/10/20 09:42:30;;;;;;;0.30;0.30;;;;;;;13.14;100.00;98110.28;5106532;28;20396;-76
2021/10/20 09:44:56;;;;;;;1.20;1.15;;;;;;;13.17;100.00;98116.22;5106213;28;20020;-75
2021/10/20 09:47:23;;;;;;;0.20;0.20;;;;;;;13.16;100.00;98099.78;5106490;28;20032;-77
2021/10/20 09:49:57;;;;;;;0.30;0.30;;;;;;;13.22;100.00;98095.97;5106221;28;20032;-76
2021/10/20 09:52:24;;;;;;;0.20;0.20;;;;;;;13.23;100.00;98087.22;5106521;28;20028;-76
2021/10/20 09:54:50;;;;;;;0.20;0.20;;;;;;;13.22;100.00;98075.97;5105969;28;20464;-77
2021/10/20 09:57:15;;;;;;;0.20;0.20;;;;;;;13.22;100.00;98075.13;5106062;28;20079;-76
2021/10/20 09:59:43;;;;;;;0.22;0.22;;;;;;;13.23;100.00;98072.44;5106139;28;20024;-76
2021/10/20 10:02:10;;;;;;;1.15;1.15;;;;;;;13.17;100.00;98059.75;5105980;28;20168;-76
2021/10/20 10:04:42;;;;;;;0.80;0.68;;;;;;;13.20;100.00;98053.53;5087940;28;20136;-76
2021/10/20 10:07:07;;;;;;;0.25;0.25;;;;;;;13.19;100.00;98050.09;5106329;28;20085;-76
2021/10/20 10:09:33;;;;;;;1.00;1.00;;;;;;;13.18;100.00;98044.97;5106056;28;20028;-76
2021/10/20 10:12:04;;;;;;;0.20;0.20;;;;;;;13.20;100.00;98045.69;5105919;28;20020;-77
2021/10/20 10:14:36;;;;;;;0.50;0.50;;;;;;;13.19;100.00;98041.44;5105839;28;20503;-76
2021/10/20 10:17:02;;;;;;;;;;;;;;;13.20;100.00;98038.75;5087889;28;20095;-76
2021/10/20 10:19:35;;;;;;;0.20;0.20;;;;;;;13.19;100.00;98025.81;5105760;28;19908;-75
2021/10/20 10:22:19;;;;;;;0.20;0.20;;;;;;;13.19;100.00;98017.97;5105747;28;20086;-75
2021/10/20 10:24:44;;;;;;;0.20;0.20;;;;;;;13.16;100.00;98012.94;5105278;28;20036;-76
2021/10/20 10:27:10;;;;;;;1.85;1.75;;;;;;;13.16;100.00;98015.56;5105608;28;20247;-76
2021/10/20 10:29:52;;;;;;;2.55;1.27;;;;;;;13.16;100.00;98010.34;5105964;28;20107;-76
2021/10/20 10:32:19;;;;;;;0.20;0.20;;;;;;;13.17;100.00;98012.88;5121901;28;20031;-77
2021/10/20 10:34:47;;;;;;;0.20;0.20;;;;;;;13.14;100.00;98015.66;5105747;28;20032;-76
2021/10/20 10:37:31;;;;;;;2.55;0.95;;;;;;;13.16;100.00;98007.75;5105643;28;20469;-77
2021/10/20 10:40:03;;;;;;;0.20;0.20;;;;;;;13.10;100.00;98001.94;5087440;28;20031;-77
2021/10/20 10:42:33;;;;;;;0.30;0.30;;;;;;;13.14;100.00;98008.69;5105646;28;20020;-78
2021/10/20 10:45:11;;;;;;;0.55;0.55;;;;;;;13.16;100.00;97998.16;5105114;28;20032;-77
2021/10/20 10:47:54;;;;;;;0.70;0.70;;;;;;;13.16;100.00;98008.59;5105635;28;20046;-77
2021/10/20 10:50:20;;;;;;;0.90;0.90;;;;;;;13.15;100.00;97996.47;5105537;28;20024;-76
2021/10/20 10:52:45;;;;;;;1.05;1.05;;;;;;;13.19;100.00;97995.38;5105161;28;20020;-75
2021/10/20 10:55:18;;;;;;;0.32;0.32;;;;;;;13.11;100.00;97990.63;5104902;28;20042;-75
2021/10/20 10:57:56;;;;;;;1.13;1.00;;;;;;;13.12;100.00;97987.09;5105257;28;20051;-76
2021/10/20 11:00:21;;;;;;;0.20;0.20;;;;;;;13.14;100.00;97980.03;5105022;28;20530;-76
2021/10/20 11:02:51;;;;;;;0.20;0.20;;;;;;;13.10;100.00;97978.50;5105136;28;20051;-76
2021/10/20 11:05:20;;;;;;;0.50;0.50;;;;;;;13.06;100.00;97964.00;5104928;28;20032;-78
2021/10/20 11:07:47;;;;;;;0.20;0.20;;;;;;;13.06;100.00;97963.16;5105098;28;20078;-77
2021/10/20 11:10:15;;;;;;;0.20;0.20;;;;;;;12.99;100.00;97949.63;5104734;28;20044;-76
2021/10/20 11:12:40;;;;;;;0.30;0.30;;;;;;;13.05;100.00;97959.69;5104789;28;20434;-76
2021/10/20 11:15:10;;;;;;;0.20;0.20;;;;;;;13.05;100.00;97961.47;5104877;28;20016;-74
2021/10/20 11:17:35;;;;;;;0.20;0.20;;;;;;;13.01;100.00;97956.44;5086524;28;20020;-76
2021/10/20 11:20:06;;;;;;;0.20;0.20;;;;;;;13.00;100.00;97948.72;5104766;28;20043;-76
2021/10/20 11:22:32;;;;;;;0.20;0.20;;;;;;;12.96;100.00;97948.06;5104638;28;20027;-76